AirNav   Air Wisconsin Up To $57,000 Bonus
 
 852 users online  

71ME Twin Eagles Airport
Naples, Maine, USA

GOING TO NAPLES?


FAA INFORMATION EFFECTIVE 30 JANUARY 2020

Location

FAA Identifier: 71ME
Lat/Long: 43-58-01.0000N 070-36-04.0000W
43-58.016667N 070-36.066667W
43.9669444,-70.6011111
(estimated)
Elevation: 280 ft. / 85 m (estimated)
From city: 1 mile SE of NAPLES, ME
Time zone: UTC -5 (UTC -4 during Daylight Saving Time)
Zip code: 04055

Airport Operations

Airport use: Private use. Permission required prior to landing
Activation date: 11/2005
Control tower: no
ARTCC: BOSTON CENTER
FSS: BANGOR FLIGHT SERVICE STATION
Attendance: UNATNDD
Wind indicator: yes
Segmented circle: no

Airport Communications

WX AWOS-3PT at LEW (15 nm E): 118.025 (207-783-2806)
WX ASOS at IZG (15 nm W): 135.775 (207-935-2882)

Nearby radio navigation aids

VOR radial/distance  VOR name  Freq  Var
ENEr018/32.5KENNEBUNK VOR/DME117.1017W

 
NDB name  Hdg/Dist  Freq  Var  ID
LEWIE288/11.424017WLE .-.. .

Airport Services

Runway Information

Runway 14/32

Dimensions: 1100 x 50 ft. / 335 x 15 m
Surface: turf
RUNWAY 14  RUNWAY 32
Traffic pattern: leftleft
Obstructions: 50 ft. trees, 50 ft. from runwaynone

Airport Ownership and Management from official FAA records

Ownership: Privately-owned
Owner: JAMES ALLEN
ALLEN LAND CO., LLC, P.O. BOX 1499
NAPLES, ME 04055-1499
Phone (207) 693-6254
CELL: 207-939-9722
Manager: JAMES ALLEN
P.O. BOX 1499
NAPLES, ME 04055-1499
Phone (207) 693-6254
CELL: 207-939-9722

Additional Remarks

OWNER DESIRES ARPT NOT BE CHARTED.
PRIOR PERMISSION REQUIRED (PPR).
FOR CD CTC PORTLAND APCH AT 207-874-7320, WHEN APCH CLSD CTC BOSTON ARTCC AT 603-879-6859.

Instrument Procedures

There are no published instrument procedures at 71ME.

Some nearby airports with instrument procedures:

81B - Oxford County Regional Airport (13 nm NE)
KLEW - Auburn/Lewiston Municipal Airport (15 nm E)
KIZG - Eastern Slopes Regional Airport (15 nm W)
KPWM - Portland International Jetport (23 nm SE)
0B1 - Bethel Regional Airport (29 nm N)
 
Loc | Ops | Rwys | IFR | FBO | Links
Com | Nav | Svcs | Stats | Notes

Auburn-Lewiston Municipal Airport
 
Area around 71ME (Twin Eagles Airport)
 
Road maps at: MapQuest Bing Google
 
Aerial photo
No photo
 
Sectional chart

 
Airport distance calculator
Flying to Twin Eagles Airport? Find the distance to fly.

From to 71ME

Sunrise and sunset
Times for 25-Feb-2020
 Local
(UTC-5)
 Zulu
(UTC)
Morning civil twilight05:5810:58
Sunrise06:2711:27
Sunset17:2422:24
Evening civil twilight17:5322:53

Current date and time
Zulu (UTC)  25-Feb-2020 12:39:35
Local (UTC-5)  25-Feb-2020 07:39:35
 
METAR
KLEW 
15nm E 
251156Z AUTO 00000KT 10SM BKN100 OVC110 00/M02 A2994 RMK AO2 SLP147 T00001022 10011 21006 51012 FZRANO
KIZG 
15nm W 
251154Z AUTO 00000KT 10SM OVC085 M01/M04 A2993 RMK AO2 SLP141 T10061039 10000 21011 51010
KPWM 
23nm SE 
251151Z 36006KT 10SM SCT060 OVC075 03/M02 A2992 RMK AO2 RAE1059 SLP133 P0000 60000 T00331017 10033 20011 50007
KCWN 
25nm W 
251158Z AUTO 35009KT 10SM BKN140 M07/M20 A2993 RMK AO2 SLP093 T10751200 11048 21079 53007 $
TAF
KPWM 
23nm SE 
251120Z 2512/2612 00000KT P6SM OVC090 FM252000 VRB03KT P6SM BKN025 OVC050
NOTAMs
Click for the latest NOTAMs
NOTAMs are issued by the DoD/FAA and will open in a separate window not controlled by AirNav.

 

 
 

Would you like to see your business listed on this page?

 If your business provides an interesting product or service to pilots, flight crews, aircraft, or users of the Twin Eagles Airport, you should consider listing it here.  To start the listing process, click on the button below
 
Add a business
 

Other Pages about Twin Eagles Airport

Update a link
 
Copyright © AirNav, LLC. All rights reserved. Privacy Policy  Contact